KOSC/OSC METAR and TAF weather

Enter ICAO airport designator
Station Type Date Time Source
KOSC METAR 2022/01/26 07:35 UTC NOAA

KOSC 260735Z AUTO 30006KT 10SM CLR M17/M20 A3026 RMK AO2 T11751199


Station Type Date Time Source
KOSC Decoded METAR 2022/01/26 07:35 UTC NOAA

Oscoda, Oscoda-Wurtsmith Airport, MI, United States (KOSC) 44-27N 083-22W
Jan 26, 2022 - 02:35 AM EST / 2022.01.26 0735 UTC
Wind: from the WNW (300 degrees) at 7 MPH (6 KT):0
Visibility: 10 mile(s):0
Sky conditions: clear
Temperature: 0.5 F (-17.5 C)
Windchill: -13 F (-25 C):2
Dew Point: -3.8 F (-19.9 C)
Relative Humidity: 81%
Pressure (altimeter): 30.26 in. Hg (1024 hPa)
ob: KOSC 260735Z AUTO 30006KT 10SM CLR M17/M20 A3026 RMK AO2 T11751199
cycle: 7

Station Type Date Time Source
KOSC TAF UTC NOAA

Error!

Example: see airport list